sensor_id;sensor_type;location;lat;lon;timestamp;P1;durP1;ratioP1;P2;durP2;ratioP2
47025;SDS011;32783;51.756;-2.556;2023-03-11T00:00:29;1.90;;;1.80;;
47025;SDS011;32783;51.756;-2.556;2023-03-11T00:02:56;1.90;;;1.63;;
47025;SDS011;32783;51.756;-2.556;2023-03-11T00:05:30;2.40;;;1.80;;
47025;SDS011;32783;51.756;-2.556;2023-03-11T00:07:59;2.00;;;1.60;;
47025;SDS011;32783;51.756;-2.556;2023-03-11T00:10:29;2.78;;;1.90;;
47025;SDS011;32783;51.756;-2.556;2023-03-11T00:12:57;2.30;;;2.05;;
47025;SDS011;32783;51.756;-2.556;2023-03-11T00:15:24;2.38;;;1.88;;
47025;SDS011;32783;51.756;-2.556;2023-03-11T00:17:50;1.88;;;1.67;;
47025;SDS011;32783;51.756;-2.556;2023-03-11T00:20:18;1.88;;;1.65;;
47025;SDS011;32783;51.756;-2.556;2023-03-11T00:22:45;1.80;;;1.50;;
47025;SDS011;32783;51.756;-2.556;2023-03-11T00:25:11;2.13;;;1.88;;
47025;SDS011;32783;51.756;-2.556;2023-03-11T00:27:37;2.22;;;1.83;;
47025;SDS011;32783;51.756;-2.556;2023-03-11T00:30:02;1.98;;;1.63;;
47025;SDS011;32783;51.756;-2.556;2023-03-11T00:32:29;2.00;;;1.50;;
47025;SDS011;32783;51.756;-2.556;2023-03-11T00:34:54;2.70;;;2.15;;
47025;SDS011;32783;51.756;-2.556;2023-03-11T00:37:19;2.50;;;2.10;;
47025;SDS011;32783;51.756;-2.556;2023-03-11T00:39:45;2.53;;;2.00;;
47025;SDS011;32783;51.756;-2.556;2023-03-11T00:42:10;2.72;;;2.10;;
47025;SDS011;32783;51.756;-2.556;2023-03-11T00:44:36;2.20;;;1.80;;
47025;SDS011;32783;51.756;-2.556;2023-03-11T00:47:01;2.30;;;1.83;;
47025;SDS011;32783;51.756;-2.556;2023-03-11T00:49:27;2.30;;;1.92;;
47025;SDS011;32783;51.756;-2.556;2023-03-11T00:51:52;1.98;;;1.40;;
47025;SDS011;32783;51.756;-2.556;2023-03-11T00:54:17;2.10;;;1.90;;
47025;SDS011;32783;51.756;-2.556;2023-03-11T00:56:43;2.65;;;1.90;;
47025;SDS011;32783;51.756;-2.556;2023-03-11T00:59:08;2.10;;;1.90;;
47025;SDS011;32783;51.756;-2.556;2023-03-11T01:01:34;2.35;;;1.60;;
47025;SDS011;32783;51.756;-2.556;2023-03-11T01:03:59;2.25;;;2.05;;
47025;SDS011;32783;51.756;-2.556;2023-03-11T01:06:25;2.22;;;2.03;;
47025;SDS011;32783;51.756;-2.556;2023-03-11T01:08:50;2.50;;;2.00;;
47025;SDS011;32783;51.756;-2.556;2023-03-11T01:11:15;2.88;;;2.33;;
47025;SDS011;32783;51.756;-2.556;2023-03-11T01:13:41;2.92;;;2.25;;
47025;SDS011;32783;51.756;-2.556;2023-03-11T01:16:07;2.92;;;2.05;;
47025;SDS011;32783;51.756;-2.556;2023-03-11T01:18:33;2.63;;;1.95;;
47025;SDS011;32783;51.756;-2.556;2023-03-11T01:20:59;2.63;;;1.92;;
47025;SDS011;32783;51.756;-2.556;2023-03-11T01:23:24;2.10;;;1.88;;
47025;SDS011;32783;51.756;-2.556;2023-03-11T01:25:50;2.33;;;2.05;;
47025;SDS011;32783;51.756;-2.556;2023-03-11T01:28:15;2.25;;;2.05;;
47025;SDS011;32783;51.756;-2.556;2023-03-11T01:30:41;2.95;;;2.00;;
47025;SDS011;32783;51.756;-2.556;2023-03-11T01:33:08;2.40;;;2.20;;
47025;SDS011;32783;51.756;-2.556;2023-03-11T01:35:38;2.47;;;2.05;;
47025;SDS011;32783;51.756;-2.556;2023-03-11T01:38:06;2.45;;;1.77;;
47025;SDS011;32783;51.756;-2.556;2023-03-11T01:40:33;2.40;;;2.20;;
47025;SDS011;32783;51.756;-2.556;2023-03-11T01:43:04;1.90;;;1.77;;
47025;SDS011;32783;51.756;-2.556;2023-03-11T01:48:14;2.58;;;2.20;;
47025;SDS011;32783;51.756;-2.556;2023-03-11T01:50:42;2.50;;;1.80;;
47025;SDS011;32783;51.756;-2.556;2023-03-11T01:53:09;2.47;;;1.98;;
47025;SDS011;32783;51.756;-2.556;2023-03-11T01:55:35;2.22;;;2.03;;
47025;SDS011;32783;51.756;-2.556;2023-03-11T01:58:01;2.40;;;1.88;;
47025;SDS011;32783;51.756;-2.556;2023-03-11T02:00:30;2.13;;;1.67;;
47025;SDS011;32783;51.756;-2.556;2023-03-11T02:02:56;2.58;;;2.00;;
47025;SDS011;32783;51.756;-2.556;2023-03-11T02:05:23;2.53;;;2.22;;
47025;SDS011;32783;51.756;-2.556;2023-03-11T02:07:49;1.90;;;1.70;;
47025;SDS011;32783;51.756;-2.556;2023-03-11T02:10:15;2.38;;;2.03;;
47025;SDS011;32783;51.756;-2.556;2023-03-11T02:12:42;2.05;;;1.80;;
47025;SDS011;32783;51.756;-2.556;2023-03-11T02:15:08;2.08;;;1.70;;
47025;SDS011;32783;51.756;-2.556;2023-03-11T02:17:34;2.85;;;2.47;;
47025;SDS011;32783;51.756;-2.556;2023-03-11T02:22:44;2.35;;;1.98;;
47025;SDS011;32783;51.756;-2.556;2023-03-11T02:25:53;2.17;;;1.98;;
47025;SDS011;32783;51.756;-2.556;2023-03-11T02:28:02;2.42;;;2.22;;
47025;SDS011;32783;51.756;-2.556;2023-03-11T02:30:30;2.55;;;2.13;;
47025;SDS011;32783;51.756;-2.556;2023-03-11T02:32:57;2.55;;;1.92;;
47025;SDS011;32783;51.756;-2.556;2023-03-11T02:35:23;2.33;;;1.85;;
47025;SDS011;32783;51.756;-2.556;2023-03-11T02:37:49;2.60;;;2.30;;
47025;SDS011;32783;51.756;-2.556;2023-03-11T02:40:27;2.38;;;2.17;;
47025;SDS011;32783;51.756;-2.556;2023-03-11T02:42:58;1.90;;;1.70;;
47025;SDS011;32783;51.756;-2.556;2023-03-11T02:45:26;2.88;;;2.22;;
47025;SDS011;32783;51.756;-2.556;2023-03-11T02:47:54;2.15;;;1.88;;
47025;SDS011;32783;51.756;-2.556;2023-03-11T02:50:21;2.03;;;1.88;;
47025;SDS011;32783;51.756;-2.556;2023-03-11T02:52:47;2.00;;;1.80;;
47025;SDS011;32783;51.756;-2.556;2023-03-11T02:55:14;1.98;;;1.77;;
47025;SDS011;32783;51.756;-2.556;2023-03-11T02:57:42;3.05;;;2.10;;
47025;SDS011;32783;51.756;-2.556;2023-03-11T03:00:08;2.05;;;1.85;;
47025;SDS011;32783;51.756;-2.556;2023-03-11T03:02:38;3.63;;;1.92;;
47025;SDS011;32783;51.756;-2.556;2023-03-11T03:05:03;2.13;;;1.88;;
47025;SDS011;32783;51.756;-2.556;2023-03-11T03:07:30;2.08;;;1.88;;
47025;SDS011;32783;51.756;-2.556;2023-03-11T03:09:55;2.33;;;2.05;;
47025;SDS011;32783;51.756;-2.556;2023-03-11T03:12:21;2.20;;;2.00;;
47025;SDS011;32783;51.756;-2.556;2023-03-11T03:14:46;2.58;;;2.20;;
47025;SDS011;32783;51.756;-2.556;2023-03-11T03:17:11;2.17;;;1.92;;
47025;SDS011;32783;51.756;-2.556;2023-03-11T03:19:37;1.92;;;1.60;;
47025;SDS011;32783;51.756;-2.556;2023-03-11T03:22:02;2.08;;;1.70;;
47025;SDS011;32783;51.756;-2.556;2023-03-11T03:24:28;1.98;;;1.77;;
47025;SDS011;32783;51.756;-2.556;2023-03-11T03:26:53;2.38;;;1.90;;
47025;SDS011;32783;51.756;-2.556;2023-03-11T03:29:19;2.20;;;1.77;;
47025;SDS011;32783;51.756;-2.556;2023-03-11T03:31:45;2.30;;;1.83;;
47025;SDS011;32783;51.756;-2.556;2023-03-11T03:34:10;1.80;;;1.70;;
47025;SDS011;32783;51.756;-2.556;2023-03-11T03:36:35;2.72;;;1.73;;
47025;SDS011;32783;51.756;-2.556;2023-03-11T03:39:02;2.00;;;1.75;;
47025;SDS011;32783;51.756;-2.556;2023-03-11T03:41:28;2.38;;;1.95;;
47025;SDS011;32783;51.756;-2.556;2023-03-11T03:43:53;1.67;;;1.58;;
47025;SDS011;32783;51.756;-2.556;2023-03-11T03:46:19;1.90;;;1.70;;
47025;SDS011;32783;51.756;-2.556;2023-03-11T03:48:44;3.15;;;2.53;;
47025;SDS011;32783;51.756;-2.556;2023-03-11T03:51:10;1.98;;;1.65;;
47025;SDS011;32783;51.756;-2.556;2023-03-11T03:53:36;2.88;;;1.98;;
47025;SDS011;32783;51.756;-2.556;2023-03-11T03:56:06;2.38;;;2.08;;
47025;SDS011;32783;51.756;-2.556;2023-03-11T03:58:32;1.83;;;1.60;;
47025;SDS011;32783;51.756;-2.556;2023-03-11T04:00:58;2.75;;;2.05;;
47025;SDS011;32783;51.756;-2.556;2023-03-11T04:03:24;2.10;;;1.63;;
47025;SDS011;32783;51.756;-2.556;2023-03-11T04:05:51;2.00;;;1.50;;
47025;SDS011;32783;51.756;-2.556;2023-03-11T04:08:16;1.70;;;1.48;;
47025;SDS011;32783;51.756;-2.556;2023-03-11T04:10:42;1.98;;;1.60;;
47025;SDS011;32783;51.756;-2.556;2023-03-11T04:13:08;2.00;;;1.80;;
47025;SDS011;32783;51.756;-2.556;2023-03-11T04:15:33;2.13;;;1.80;;
47025;SDS011;32783;51.756;-2.556;2023-03-11T04:17:58;2.90;;;1.70;;
47025;SDS011;32783;51.756;-2.556;2023-03-11T04:20:24;2.47;;;1.98;;
47025;SDS011;32783;51.756;-2.556;2023-03-11T04:22:50;2.33;;;1.85;;
47025;SDS011;32783;51.756;-2.556;2023-03-11T04:25:15;2.20;;;1.30;;
47025;SDS011;32783;51.756;-2.556;2023-03-11T04:27:41;1.92;;;1.55;;
47025;SDS011;32783;51.756;-2.556;2023-03-11T04:30:10;1.73;;;1.60;;
47025;SDS011;32783;51.756;-2.556;2023-03-11T04:32:36;3.88;;;3.00;;
47025;SDS011;32783;51.756;-2.556;2023-03-11T04:35:01;1.85;;;1.40;;
47025;SDS011;32783;51.756;-2.556;2023-03-11T04:37:27;1.65;;;1.50;;
47025;SDS011;32783;51.756;-2.556;2023-03-11T04:39:53;2.35;;;1.80;;
47025;SDS011;32783;51.756;-2.556;2023-03-11T04:42:18;1.90;;;1.40;;
47025;SDS011;32783;51.756;-2.556;2023-03-11T04:44:44;2.20;;;1.58;;
47025;SDS011;32783;51.756;-2.556;2023-03-11T04:47:09;2.25;;;1.58;;
47025;SDS011;32783;51.756;-2.556;2023-03-11T04:49:35;1.92;;;1.52;;
47025;SDS011;32783;51.756;-2.556;2023-03-11T04:52:00;2.03;;;1.90;;
47025;SDS011;32783;51.756;-2.556;2023-03-11T04:54:26;1.65;;;1.48;;
47025;SDS011;32783;51.756;-2.556;2023-03-11T04:56:51;1.67;;;1.58;;
47025;SDS011;32783;51.756;-2.556;2023-03-11T04:59:17;1.60;;;1.50;;
47025;SDS011;32783;51.756;-2.556;2023-03-11T05:01:42;1.73;;;1.35;;
47025;SDS011;32783;51.756;-2.556;2023-03-11T05:04:08;1.40;;;1.30;;
47025;SDS011;32783;51.756;-2.556;2023-03-11T05:06:34;1.80;;;1.45;;
47025;SDS011;32783;51.756;-2.556;2023-03-11T05:09:00;2.25;;;1.63;;
47025;SDS011;32783;51.756;-2.556;2023-03-11T05:11:25;2.30;;;1.58;;
47025;SDS011;32783;51.756;-2.556;2023-03-11T05:13:51;2.05;;;1.38;;
47025;SDS011;32783;51.756;-2.556;2023-03-11T05:16:16;1.60;;;1.30;;
47025;SDS011;32783;51.756;-2.556;2023-03-11T05:18:42;1.98;;;1.60;;
47025;SDS011;32783;51.756;-2.556;2023-03-11T05:21:07;1.30;;;1.20;;
47025;SDS011;32783;51.756;-2.556;2023-03-11T05:23:33;1.98;;;1.40;;
47025;SDS011;32783;51.756;-2.556;2023-03-11T05:25:58;2.28;;;1.73;;
47025;SDS011;32783;51.756;-2.556;2023-03-11T05:28:23;1.30;;;1.20;;
47025;SDS011;32783;51.756;-2.556;2023-03-11T05:30:49;1.67;;;1.38;;
47025;SDS011;32783;51.756;-2.556;2023-03-11T05:33:14;1.80;;;1.60;;
47025;SDS011;32783;51.756;-2.556;2023-03-11T05:35:40;1.60;;;1.40;;
47025;SDS011;32783;51.756;-2.556;2023-03-11T05:38:06;1.70;;;1.25;;
47025;SDS011;32783;51.756;-2.556;2023-03-11T05:40:32;1.55;;;1.45;;
47025;SDS011;32783;51.756;-2.556;2023-03-11T05:42:57;1.55;;;1.45;;
47025;SDS011;32783;51.756;-2.556;2023-03-11T05:45:23;1.45;;;1.25;;
47025;SDS011;32783;51.756;-2.556;2023-03-11T05:47:50;1.42;;;1.30;;
47025;SDS011;32783;51.756;-2.556;2023-03-11T05:50:16;2.05;;;1.50;;
47025;SDS011;32783;51.756;-2.556;2023-03-11T05:52:41;1.60;;;1.30;;
47025;SDS011;32783;51.756;-2.556;2023-03-11T05:55:07;1.85;;;1.55;;
47025;SDS011;32783;51.756;-2.556;2023-03-11T05:57:35;1.45;;;1.27;;
47025;SDS011;32783;51.756;-2.556;2023-03-11T06:00:01;1.42;;;1.30;;
47025;SDS011;32783;51.756;-2.556;2023-03-11T06:02:28;1.38;;;1.10;;
47025;SDS011;32783;51.756;-2.556;2023-03-11T06:04:53;1.67;;;1.50;;
47025;SDS011;32783;51.756;-2.556;2023-03-11T06:07:19;1.45;;;1.30;;
47025;SDS011;32783;51.756;-2.556;2023-03-11T06:09:44;1.35;;;1.00;;
47025;SDS011;32783;51.756;-2.556;2023-03-11T06:12:10;1.30;;;1.20;;
47025;SDS011;32783;51.756;-2.556;2023-03-11T06:14:35;1.63;;;1.20;;
47025;SDS011;32783;51.756;-2.556;2023-03-11T06:17:02;1.10;;;1.00;;
47025;SDS011;32783;51.756;-2.556;2023-03-11T06:19:28;1.77;;;1.50;;
47025;SDS011;32783;51.756;-2.556;2023-03-11T06:21:53;2.08;;;1.40;;
47025;SDS011;32783;51.756;-2.556;2023-03-11T06:24:19;1.55;;;1.45;;
47025;SDS011;32783;51.756;-2.556;2023-03-11T06:26:44;1.95;;;1.45;;
47025;SDS011;32783;51.756;-2.556;2023-03-11T06:29:11;1.00;;;0.90;;
47025;SDS011;32783;51.756;-2.556;2023-03-11T06:31:37;1.67;;;1.05;;
47025;SDS011;32783;51.756;-2.556;2023-03-11T06:34:04;1.33;;;1.05;;
47025;SDS011;32783;51.756;-2.556;2023-03-11T06:36:30;1.30;;;1.17;;
47025;SDS011;32783;51.756;-2.556;2023-03-11T06:38:56;1.20;;;1.10;;
47025;SDS011;32783;51.756;-2.556;2023-03-11T06:41:22;1.38;;;1.10;;
47025;SDS011;32783;51.756;-2.556;2023-03-11T06:43:48;1.40;;;1.30;;
47025;SDS011;32783;51.756;-2.556;2023-03-11T06:46:18;1.42;;;1.30;;
47025;SDS011;32783;51.756;-2.556;2023-03-11T06:48:45;1.48;;;1.38;;
47025;SDS011;32783;51.756;-2.556;2023-03-11T06:51:10;1.30;;;1.10;;
47025;SDS011;32783;51.756;-2.556;2023-03-11T06:53:36;1.15;;;1.02;;
47025;SDS011;32783;51.756;-2.556;2023-03-11T06:56:07;1.67;;;1.30;;
47025;SDS011;32783;51.756;-2.556;2023-03-11T06:58:34;1.23;;;1.13;;
47025;SDS011;32783;51.756;-2.556;2023-03-11T07:01:01;2.05;;;1.25;;
47025;SDS011;32783;51.756;-2.556;2023-03-11T07:03:28;1.80;;;1.40;;
47025;SDS011;32783;51.756;-2.556;2023-03-11T07:05:54;1.35;;;1.00;;
47025;SDS011;32783;51.756;-2.556;2023-03-11T07:08:19;1.50;;;1.20;;
47025;SDS011;32783;51.756;-2.556;2023-03-11T07:10:45;1.30;;;0.93;;
47025;SDS011;32783;51.756;-2.556;2023-03-11T07:13:10;1.42;;;1.10;;
47025;SDS011;32783;51.756;-2.556;2023-03-11T07:15:36;1.10;;;1.00;;
47025;SDS011;32783;51.756;-2.556;2023-03-11T07:18:02;1.23;;;1.02;;
47025;SDS011;32783;51.756;-2.556;2023-03-11T07:20:27;2.42;;;1.10;;
47025;SDS011;32783;51.756;-2.556;2023-03-11T07:22:52;1.67;;;1.30;;
47025;SDS011;32783;51.756;-2.556;2023-03-11T07:25:18;1.42;;;1.20;;
47025;SDS011;32783;51.756;-2.556;2023-03-11T07:27:43;1.17;;;1.08;;
47025;SDS011;32783;51.756;-2.556;2023-03-11T07:30:09;1.00;;;1.00;;
47025;SDS011;32783;51.756;-2.556;2023-03-11T07:32:35;1.10;;;1.00;;
47025;SDS011;32783;51.756;-2.556;2023-03-11T07:35:00;1.27;;;0.90;;
47025;SDS011;32783;51.756;-2.556;2023-03-11T07:37:26;1.20;;;1.10;;
47025;SDS011;32783;51.756;-2.556;2023-03-11T07:39:51;1.13;;;0.98;;
47025;SDS011;32783;51.756;-2.556;2023-03-11T07:42:17;1.10;;;0.80;;
47025;SDS011;32783;51.756;-2.556;2023-03-11T07:44:42;1.63;;;1.23;;
47025;SDS011;32783;51.756;-2.556;2023-03-11T07:47:08;1.35;;;1.08;;
47025;SDS011;32783;51.756;-2.556;2023-03-11T07:49:33;1.73;;;1.33;;
47025;SDS011;32783;51.756;-2.556;2023-03-11T07:51:59;1.85;;;1.35;;
47025;SDS011;32783;51.756;-2.556;2023-03-11T07:54:24;1.15;;;0.98;;
47025;SDS011;32783;51.756;-2.556;2023-03-11T07:56:50;1.33;;;1.20;;
47025;SDS011;32783;51.756;-2.556;2023-03-11T07:59:15;2.17;;;1.27;;
47025;SDS011;32783;51.756;-2.556;2023-03-11T08:01:41;1.33;;;1.10;;
47025;SDS011;32783;51.756;-2.556;2023-03-11T08:04:11;1.58;;;1.20;;
47025;SDS011;32783;51.756;-2.556;2023-03-11T08:06:37;1.13;;;0.85;;
47025;SDS011;32783;51.756;-2.556;2023-03-11T08:09:05;1.33;;;0.90;;
47025;SDS011;32783;51.756;-2.556;2023-03-11T08:11:32;0.88;;;0.80;;
47025;SDS011;32783;51.756;-2.556;2023-03-11T08:13:58;1.40;;;1.20;;
47025;SDS011;32783;51.756;-2.556;2023-03-11T08:16:23;3.42;;;1.30;;
47025;SDS011;32783;51.756;-2.556;2023-03-11T08:18:50;1.35;;;1.00;;
47025;SDS011;32783;51.756;-2.556;2023-03-11T08:21:20;1.75;;;1.10;;
47025;SDS011;32783;51.756;-2.556;2023-03-11T08:23:47;1.42;;;1.10;;
47025;SDS011;32783;51.756;-2.556;2023-03-11T08:26:14;1.00;;;0.70;;
47025;SDS011;32783;51.756;-2.556;2023-03-11T08:28:41;1.17;;;0.80;;
47025;SDS011;32783;51.756;-2.556;2023-03-11T08:31:11;1.40;;;1.23;;
47025;SDS011;32783;51.756;-2.556;2023-03-11T08:33:41;1.05;;;0.95;;
47025;SDS011;32783;51.756;-2.556;2023-03-11T08:36:07;1.35;;;0.98;;
47025;SDS011;32783;51.756;-2.556;2023-03-11T08:38:33;1.25;;;0.90;;
47025;SDS011;32783;51.756;-2.556;2023-03-11T08:40:59;0.88;;;0.80;;
47025;SDS011;32783;51.756;-2.556;2023-03-11T08:43:25;0.90;;;0.80;;
47025;SDS011;32783;51.756;-2.556;2023-03-11T08:45:50;1.38;;;1.10;;
47025;SDS011;32783;51.756;-2.556;2023-03-11T08:48:15;1.00;;;0.80;;
47025;SDS011;32783;51.756;-2.556;2023-03-11T08:50:41;1.45;;;1.05;;
47025;SDS011;32783;51.756;-2.556;2023-03-11T08:53:07;1.10;;;0.90;;
47025;SDS011;32783;51.756;-2.556;2023-03-11T08:55:33;1.20;;;1.10;;
47025;SDS011;32783;51.756;-2.556;2023-03-11T08:57:59;1.30;;;1.20;;
47025;SDS011;32783;51.756;-2.556;2023-03-11T09:00:24;1.25;;;1.00;;
47025;SDS011;32783;51.756;-2.556;2023-03-11T09:02:51;1.40;;;0.90;;
47025;SDS011;32783;51.756;-2.556;2023-03-11T09:05:17;1.15;;;0.98;;
47025;SDS011;32783;51.756;-2.556;2023-03-11T09:07:42;1.38;;;1.05;;
47025;SDS011;32783;51.756;-2.556;2023-03-11T09:10:08;1.55;;;1.00;;
47025;SDS011;32783;51.756;-2.556;2023-03-11T09:12:37;1.77;;;1.15;;
47025;SDS011;32783;51.756;-2.556;2023-03-11T09:15:02;1.33;;;1.10;;
47025;SDS011;32783;51.756;-2.556;2023-03-11T09:17:28;1.40;;;1.08;;
47025;SDS011;32783;51.756;-2.556;2023-03-11T09:19:53;1.40;;;1.10;;
47025;SDS011;32783;51.756;-2.556;2023-03-11T09:22:19;1.20;;;1.10;;
47025;SDS011;32783;51.756;-2.556;2023-03-11T09:24:44;1.45;;;1.00;;
47025;SDS011;32783;51.756;-2.556;2023-03-11T09:27:10;1.30;;;1.00;;
47025;SDS011;32783;51.756;-2.556;2023-03-11T09:29:37;1.25;;;1.08;;
47025;SDS011;32783;51.756;-2.556;2023-03-11T09:32:02;1.63;;;1.13;;
47025;SDS011;32783;51.756;-2.556;2023-03-11T09:34:28;1.70;;;1.17;;
47025;SDS011;32783;51.756;-2.556;2023-03-11T09:36:53;1.50;;;1.20;;
47025;SDS011;32783;51.756;-2.556;2023-03-11T09:39:19;1.65;;;1.40;;
47025;SDS011;32783;51.756;-2.556;2023-03-11T09:44:42;1.83;;;1.60;;
47025;SDS011;32783;51.756;-2.556;2023-03-11T09:50:01;1.95;;;1.33;;
47025;SDS011;32783;51.756;-2.556;2023-03-11T09:52:52;2.40;;;1.40;;
47025;SDS011;32783;51.756;-2.556;2023-03-11T09:55:43;4.00;;;1.70;;
47025;SDS011;32783;51.756;-2.556;2023-03-11T10:00:44;1.77;;;1.50;;
47025;SDS011;32783;51.756;-2.556;2023-03-11T10:03:19;1.95;;;1.65;;
47025;SDS011;32783;51.756;-2.556;2023-03-11T10:05:50;1.30;;;1.20;;
47025;SDS011;32783;51.756;-2.556;2023-03-11T10:08:23;1.90;;;1.58;;
47025;SDS011;32783;51.756;-2.556;2023-03-11T10:10:56;2.17;;;1.50;;
47025;SDS011;32783;51.756;-2.556;2023-03-11T10:13:37;1.70;;;1.35;;
47025;SDS011;32783;51.756;-2.556;2023-03-11T10:16:37;1.70;;;1.35;;
47025;SDS011;32783;51.756;-2.556;2023-03-11T10:22:13;2.97;;;1.55;;
47025;SDS011;32783;51.756;-2.556;2023-03-11T10:25:21;2.17;;;1.75;;
47025;SDS011;32783;51.756;-2.556;2023-03-11T10:27:54;2.13;;;1.33;;
47025;SDS011;32783;51.756;-2.556;2023-03-11T10:33:00;2.08;;;1.25;;
47025;SDS011;32783;51.756;-2.556;2023-03-11T10:38:26;2.03;;;1.33;;
47025;SDS011;32783;51.756;-2.556;2023-03-11T10:40:56;1.67;;;1.30;;
47025;SDS011;32783;51.756;-2.556;2023-03-11T10:45:53;2.35;;;1.33;;
47025;SDS011;32783;51.756;-2.556;2023-03-11T10:48:19;1.85;;;1.27;;
47025;SDS011;32783;51.756;-2.556;2023-03-11T10:53:16;1.88;;;1.33;;
47025;SDS011;32783;51.756;-2.556;2023-03-11T10:55:47;1.85;;;1.73;;
47025;SDS011;32783;51.756;-2.556;2023-03-11T10:58:16;1.85;;;1.10;;
47025;SDS011;32783;51.756;-2.556;2023-03-11T11:00:43;1.58;;;1.13;;
47025;SDS011;32783;51.756;-2.556;2023-03-11T11:03:22;1.65;;;1.35;;
47025;SDS011;32783;51.756;-2.556;2023-03-11T11:05:58;2.55;;;1.67;;
47025;SDS011;32783;51.756;-2.556;2023-03-11T11:08:25;2.08;;;1.27;;
47025;SDS011;32783;51.756;-2.556;2023-03-11T11:10:53;1.50;;;0.98;;
47025;SDS011;32783;51.756;-2.556;2023-03-11T11:13:24;1.73;;;1.30;;
47025;SDS011;32783;51.756;-2.556;2023-03-11T11:18:45;1.83;;;1.30;;
47025;SDS011;32783;51.756;-2.556;2023-03-11T11:21:15;1.92;;;1.30;;
47025;SDS011;32783;51.756;-2.556;2023-03-11T11:24:03;1.48;;;1.10;;
47025;SDS011;32783;51.756;-2.556;2023-03-11T11:31:37;1.67;;;1.10;;
47025;SDS011;32783;51.756;-2.556;2023-03-11T11:34:13;1.30;;;1.00;;
47025;SDS011;32783;51.756;-2.556;2023-03-11T11:36:57;1.65;;;0.93;;
47025;SDS011;32783;51.756;-2.556;2023-03-11T11:39:25;1.60;;;1.15;;
47025;SDS011;32783;51.756;-2.556;2023-03-11T11:41:52;2.37;;;1.43;;
47025;SDS011;32783;51.756;-2.556;2023-03-11T11:44:20;1.33;;;0.98;;
47025;SDS011;32783;51.756;-2.556;2023-03-11T11:47:11;2.00;;;1.33;;
47025;SDS011;32783;51.756;-2.556;2023-03-11T11:49:35;1.43;;;1.00;;
47025;SDS011;32783;51.756;-2.556;2023-03-11T11:52:03;2.00;;;1.20;;
47025;SDS011;32783;51.756;-2.556;2023-03-11T11:54:34;0.80;;;0.70;;
47025;SDS011;32783;51.756;-2.556;2023-03-11T11:57:11;1.40;;;1.05;;
47025;SDS011;32783;51.756;-2.556;2023-03-11T11:59:40;1.30;;;0.75;;
47025;SDS011;32783;51.756;-2.556;2023-03-11T12:05:08;1.80;;;1.15;;
47025;SDS011;32783;51.756;-2.556;2023-03-11T12:07:50;1.90;;;1.40;;
47025;SDS011;32783;51.756;-2.556;2023-03-11T12:15:41;1.50;;;0.98;;
47025;SDS011;32783;51.756;-2.556;2023-03-11T12:18:38;1.50;;;1.10;;
47025;SDS011;32783;51.756;-2.556;2023-03-11T12:21:28;1.52;;;1.02;;
47025;SDS011;32783;51.756;-2.556;2023-03-11T12:26:53;1.42;;;1.13;;
47025;SDS011;32783;51.756;-2.556;2023-03-11T12:29:24;1.52;;;1.00;;
47025;SDS011;32783;51.756;-2.556;2023-03-11T12:31:52;1.38;;;0.88;;
47025;SDS011;32783;51.756;-2.556;2023-03-11T12:34:20;1.73;;;1.08;;
47025;SDS011;32783;51.756;-2.556;2023-03-11T12:36:46;1.30;;;1.00;;
47025;SDS011;32783;51.756;-2.556;2023-03-11T12:44:35;2.13;;;1.10;;
47025;SDS011;32783;51.756;-2.556;2023-03-11T12:49:34;1.23;;;1.10;;
47025;SDS011;32783;51.756;-2.556;2023-03-11T12:54:30;1.02;;;0.70;;
47025;SDS011;32783;51.756;-2.556;2023-03-11T13:13:54;1.15;;;0.90;;
47025;SDS011;32783;51.756;-2.556;2023-03-11T13:16:43;1.10;;;0.88;;
47025;SDS011;32783;51.756;-2.556;2023-03-11T13:18:47;1.05;;;0.88;;
47025;SDS011;32783;51.756;-2.556;2023-03-11T13:23:51;0.98;;;0.80;;
47025;SDS011;32783;51.756;-2.556;2023-03-11T13:31:28;1.58;;;0.80;;
47025;SDS011;32783;51.756;-2.556;2023-03-11T13:36:48;1.02;;;0.80;;
47025;SDS011;32783;51.756;-2.556;2023-03-11T13:39:52;1.20;;;0.82;;
47025;SDS011;32783;51.756;-2.556;2023-03-11T13:42:34;1.00;;;0.75;;
47025;SDS011;32783;51.756;-2.556;2023-03-11T13:45:02;1.52;;;0.70;;
47025;SDS011;32783;51.756;-2.556;2023-03-11T13:47:31;0.93;;;0.70;;
47025;SDS011;32783;51.756;-2.556;2023-03-11T13:50:07;1.08;;;0.90;;
47025;SDS011;32783;51.756;-2.556;2023-03-11T13:52:42;0.75;;;0.60;;
47025;SDS011;32783;51.756;-2.556;2023-03-11T13:55:18;1.25;;;0.80;;
47025;SDS011;32783;51.756;-2.556;2023-03-11T13:57:49;0.70;;;0.60;;
47025;SDS011;32783;51.756;-2.556;2023-03-11T14:00:16;1.00;;;0.85;;
47025;SDS011;32783;51.756;-2.556;2023-03-11T14:02:54;1.17;;;0.77;;
47025;SDS011;32783;51.756;-2.556;2023-03-11T14:05:22;1.30;;;0.63;;
47025;SDS011;32783;51.756;-2.556;2023-03-11T14:07:51;1.15;;;0.85;;
47025;SDS011;32783;51.756;-2.556;2023-03-11T14:10:22;0.63;;;0.60;;
47025;SDS011;32783;51.756;-2.556;2023-03-11T14:12:50;1.00;;;0.73;;
47025;SDS011;32783;51.756;-2.556;2023-03-11T14:15:20;0.80;;;0.77;;
47025;SDS011;32783;51.756;-2.556;2023-03-11T14:17:49;1.00;;;0.90;;
47025;SDS011;32783;51.756;-2.556;2023-03-11T14:20:16;1.75;;;0.90;;
47025;SDS011;32783;51.756;-2.556;2023-03-11T14:22:49;2.15;;;1.15;;
47025;SDS011;32783;51.756;-2.556;2023-03-11T14:25:18;0.77;;;0.60;;
47025;SDS011;32783;51.756;-2.556;2023-03-11T14:27:55;0.73;;;0.70;;
47025;SDS011;32783;51.756;-2.556;2023-03-11T14:30:26;1.27;;;1.02;;
47025;SDS011;32783;51.756;-2.556;2023-03-11T14:33:00;1.60;;;0.80;;
47025;SDS011;32783;51.756;-2.556;2023-03-11T14:35:28;0.68;;;0.60;;
47025;SDS011;32783;51.756;-2.556;2023-03-11T14:37:54;1.38;;;1.02;;
47025;SDS011;32783;51.756;-2.556;2023-03-11T14:40:25;1.30;;;0.85;;
47025;SDS011;32783;51.756;-2.556;2023-03-11T14:42:53;1.25;;;0.68;;
47025;SDS011;32783;51.756;-2.556;2023-03-11T14:45:21;0.73;;;0.60;;
47025;SDS011;32783;51.756;-2.556;2023-03-11T14:50:51;1.23;;;0.90;;
47025;SDS011;32783;51.756;-2.556;2023-03-11T14:53:28;0.95;;;0.60;;
47025;SDS011;32783;51.756;-2.556;2023-03-11T15:01:29;1.27;;;0.70;;
47025;SDS011;32783;51.756;-2.556;2023-03-11T15:03:59;1.20;;;0.60;;
47025;SDS011;32783;51.756;-2.556;2023-03-11T15:06:29;0.70;;;0.60;;
47025;SDS011;32783;51.756;-2.556;2023-03-11T15:09:04;1.02;;;0.50;;
47025;SDS011;32783;51.756;-2.556;2023-03-11T15:11:55;1.25;;;0.50;;
47025;SDS011;32783;51.756;-2.556;2023-03-11T15:16:51;0.80;;;0.57;;
47025;SDS011;32783;51.756;-2.556;2023-03-11T15:21:52;0.98;;;0.60;;
47025;SDS011;32783;51.756;-2.556;2023-03-11T15:24:22;0.57;;;0.50;;
47025;SDS011;32783;51.756;-2.556;2023-03-11T15:27:02;0.82;;;0.50;;
47025;SDS011;32783;51.756;-2.556;2023-03-11T15:29:29;1.10;;;0.65;;
47025;SDS011;32783;51.756;-2.556;2023-03-11T15:31:56;1.27;;;0.98;;
47025;SDS011;32783;51.756;-2.556;2023-03-11T15:34:24;1.33;;;1.23;;
47025;SDS011;32783;51.756;-2.556;2023-03-11T15:36:56;1.38;;;0.70;;
47025;SDS011;32783;51.756;-2.556;2023-03-11T15:42:02;1.02;;;0.60;;
47025;SDS011;32783;51.756;-2.556;2023-03-11T15:47:00;0.98;;;0.63;;
47025;SDS011;32783;51.756;-2.556;2023-03-11T15:49:27;1.20;;;0.70;;
47025;SDS011;32783;51.756;-2.556;2023-03-11T15:51:56;0.82;;;0.55;;
47025;SDS011;32783;51.756;-2.556;2023-03-11T15:54:25;1.77;;;0.82;;
47025;SDS011;32783;51.756;-2.556;2023-03-11T15:56:51;0.70;;;0.60;;
47025;SDS011;32783;51.756;-2.556;2023-03-11T15:59:19;1.13;;;0.70;;
47025;SDS011;32783;51.756;-2.556;2023-03-11T16:01:44;0.80;;;0.63;;
47025;SDS011;32783;51.756;-2.556;2023-03-11T16:04:15;0.88;;;0.50;;
47025;SDS011;32783;51.756;-2.556;2023-03-11T16:06:42;1.25;;;0.65;;
47025;SDS011;32783;51.756;-2.556;2023-03-11T16:09:08;1.40;;;0.70;;
47025;SDS011;32783;51.756;-2.556;2023-03-11T16:11:34;1.15;;;0.68;;
47025;SDS011;32783;51.756;-2.556;2023-03-11T16:13:59;1.20;;;0.65;;
47025;SDS011;32783;51.756;-2.556;2023-03-11T16:16:25;1.15;;;0.70;;
47025;SDS011;32783;51.756;-2.556;2023-03-11T16:18:50;1.17;;;0.60;;
47025;SDS011;32783;51.756;-2.556;2023-03-11T16:21:16;0.85;;;0.50;;